Time;durP1;ratioP1;P1;durP2;ratioP2;P2;SDS_P1;SDS_P2;PMS_P1;PMS_P2;Temp;Humidity;BMP_temperature;BMP_pressure;BME280_temperature;BME280_humidity;BME280_pressure;Samples;Min_cycle;Max_cycle;Signal;HPM_P1;HPM_P2
2023/04/02 00:00:03;;;;;;;9.23;3.30;;;4.50;99.90;;;;;;5089207;28;20039;-83
2023/04/02 00:02:30;;;;;;;9.50;3.60;;;7.10;99.90;;;;;;5088857;28;20119;-82
2023/04/02 00:05:15;;;;;;;9.20;4.35;;;4.60;99.90;;;;;;5072470;28;20047;-82
2023/04/02 00:07:43;;;;;;;6.82;2.50;;;4.60;99.90;;;;;;5071537;28;20098;-85
2023/04/02 00:10:44;;;;;;;7.32;2.60;;;7.20;99.90;;;;;;5072413;28;20043;-83
2023/04/02 00:13:10;;;;;;;7.20;2.83;;;4.60;99.90;;;;;;5072387;28;20923;-83
2023/04/02 00:15:38;;;;;;;7.38;2.67;;;5.30;99.90;;;;;;5088878;28;20051;-83
2023/04/02 00:18:05;;;;;;;6.03;2.70;;;7.10;99.90;;;;;;5089961;28;20043;-83
2023/04/02 00:20:40;;;;;;;6.70;2.30;;;4.60;99.90;;;;;;5071878;28;20115;-82
2023/04/02 00:23:08;;;;;;;10.23;3.00;;;7.50;99.90;;;;;;5089962;28;20068;-83
2023/04/02 00:25:41;;;;;;;8.27;2.80;;;4.30;99.90;;;;;;5072206;28;20510;-81
2023/04/02 00:28:16;;;;;;;7.85;2.53;;;4.30;99.90;;;;;;5088590;28;20672;-81
2023/04/02 00:30:45;;;;;;;;;;;4.30;99.90;;;;;;5089948;28;20399;-80
2023/04/02 00:33:18;;;;;;;7.25;2.20;;;4.30;99.90;;;;;;5089412;28;19924;-81
2023/04/02 00:35:49;;;;;;;9.45;2.78;;;6.70;99.90;;;;;;5069445;28;20080;-82
2023/04/02 00:38:31;;;;;;;9.32;2.67;;;4.20;99.90;;;;;;5091024;28;20040;-82
2023/04/02 00:41:03;;;;;;;7.30;2.40;;;4.10;99.90;;;;;;5088023;28;20031;-84
2023/04/02 00:43:37;;;;;;;6.30;2.65;;;4.10;99.90;;;;;;5086140;28;20087;-82
2023/04/02 00:46:20;;;;;;;4.95;2.25;;;5.70;99.90;;;;;;5054324;28;20076;-84
2023/04/02 00:49:11;;;;;;;4.80;2.28;;;4.10;99.90;;;;;;5083578;28;20083;-82
2023/04/02 00:51:52;;;;;;;3.97;1.83;;;4.00;99.90;;;;;;5081853;28;20036;-83
2023/04/02 00:54:22;;;;;;;6.53;2.17;;;4.00;99.90;;;;;;5056821;28;20040;-82
2023/04/02 00:56:53;;;;;;;11.07;2.40;;;4.00;99.90;;;;;;5088267;28;20515;-81
2023/04/02 00:59:28;;;;;;;6.72;2.33;;;4.00;99.90;;;;;;5091334;28;20054;-81
2023/04/02 01:02:00;;;;;;;;;;;6.70;99.90;;;;;;5069093;28;20036;-82
2023/04/02 01:04:30;;;;;;;6.28;2.33;;;3.80;99.90;;;;;;5089147;28;19924;-81
2023/04/02 01:07:03;;;;;;;4.65;2.10;;;3.80;99.90;;;;;;5055992;28;20159;-82
2023/04/02 01:09:55;;;;;;;5.38;2.20;;;3.80;99.90;;;;;;5090188;28;20065;-82
2023/04/02 01:12:35;;;;;;;4.65;2.45;;;3.70;99.90;;;;;;5089790;28;20032;-82
2023/04/02 01:15:40;;;;;;;8.73;2.08;;;3.70;99.90;;;;;;5088718;28;20040;-83
2023/04/02 01:18:16;;;;;;;6.15;2.30;;;3.60;99.90;;;;;;5086089;28;20036;-82
2023/04/02 01:21:14;;;;;;;6.45;2.08;;;3.40;99.90;;;;;;5088842;28;20495;-81
2023/04/02 01:24:01;;;;;;;5.78;2.08;;;3.50;99.90;;;;;;5098647;28;20042;-82
2023/04/02 01:27:02;;;;;;;5.82;1.73;;;4.60;99.90;;;;;;5084778;28;20048;-84
2023/04/02 01:29:44;;;;;;;5.30;2.00;;;3.40;99.90;;;;;;5079006;28;20046;-81
2023/04/02 01:32:14;;;;;;;3.20;1.60;;;3.40;99.90;;;;;;5089145;28;20086;-83
2023/04/02 01:34:46;;;;;;;5.80;2.13;;;5.20;99.90;;;;;;5073380;28;20090;-82
2023/04/02 01:37:33;;;;;;;6.53;1.65;;;3.20;99.90;;;;;;5054509;28;20040;-82
2023/04/02 01:40:18;;;;;;;3.35;1.85;;;3.30;99.90;;;;;;5089181;28;20046;-84
2023/04/02 01:43:14;;;;;;;4.22;2.08;;;3.20;99.90;;;;;;5088681;28;20056;-82
2023/04/02 01:45:41;;;;;;;4.90;1.67;;;5.80;99.90;;;;;;5086648;28;20705;-82
2023/04/02 01:48:18;;;;;;;3.60;1.67;;;6.10;99.90;;;;;;5051652;28;20127;-81
2023/04/02 01:50:59;;;;;;;4.30;1.38;;;3.10;99.90;;;;;;5068057;28;20067;-82
2023/04/02 01:53:28;;;;;;;2.97;1.40;;;4.00;99.90;;;;;;5053096;28;20044;-82
2023/04/02 01:56:00;;;;;;;6.22;1.73;;;3.20;99.90;;;;;;5053736;28;20588;-82
2023/04/02 01:58:30;;;;;;;6.63;1.48;;;3.00;99.90;;;;;;5087316;28;20721;-82
2023/04/02 02:01:04;;;;;;;3.78;1.70;;;3.00;99.90;;;;;;5071305;28;20101;-82
2023/04/02 02:03:30;;;;;;;;;;;4.70;99.90;;;;;;5071576;28;20040;-82
2023/04/02 02:05:57;;;;;;;8.27;1.98;;;3.00;99.90;;;;;;5052760;28;19934;-82
2023/04/02 02:08:40;;;;;;;4.03;1.30;;;2.90;99.90;;;;;;5071897;28;20084;-82
2023/04/02 02:11:15;;;;;;;6.13;1.52;;;3.00;99.90;;;;;;5052764;28;20036;-82
2023/04/02 02:13:45;;;;;;;6.25;1.50;;;2.90;99.90;;;;;;5018857;28;20036;-83
2023/04/02 02:16:16;;;;;;;4.32;1.63;;;2.70;99.90;;;;;;5089092;28;20040;-82
2023/04/02 02:18:48;;;;;;;2.13;1.13;;;4.00;99.90;;;;;;5071286;28;20044;-82
2023/04/02 02:21:38;;;;;;;2.58;1.23;;;5.90;99.90;;;;;;5088364;28;20060;-82
2023/04/02 02:24:13;;;;;;;4.40;1.45;;;4.80;99.90;;;;;;5070589;28;20032;-83
2023/04/02 02:26:41;;;;;;;6.65;1.13;;;2.80;99.90;;;;;;5085230;28;20468;-83
2023/04/02 02:29:19;;;;;;;6.10;1.38;;;2.70;99.90;;;;;;5086368;28;20058;-82
2023/04/02 02:31:58;;;;;;;4.68;1.23;;;2.70;99.90;;;;;;5080546;28;20049;-82
2023/04/02 02:35:02;;;;;;;7.68;0.95;;;2.70;99.90;;;;;;5070122;28;20050;-82
2023/04/02 02:37:34;;;;;;;3.42;1.27;;;2.60;99.90;;;;;;5085275;28;20052;-82
2023/04/02 02:40:11;;;;;;;4.20;1.00;;;5.70;99.90;;;;;;5071334;28;20047;-83
2023/04/02 02:43:00;;;;;;;5.40;1.05;;;0.30;99.90;;;;;;5071247;28;20826;-83
2023/04/02 02:45:37;;;;;;;4.85;1.23;;;2.50;99.90;;;;;;5068158;28;20385;-82
2023/04/02 02:48:14;;;;;;;1.92;0.80;;;4.90;99.90;;;;;;5084158;28;20145;-82
2023/04/02 02:50:44;;;;;;;4.82;1.27;;;5.30;99.90;;;;;;5087732;28;20048;-82
2023/04/02 02:53:48;;;;;;;5.25;1.10;;;4.50;99.90;;;;;;5071408;28;20136;-83
2023/04/02 02:56:15;;;;;;;2.70;0.85;;;2.50;99.90;;;;;;5085133;28;20052;-83
2023/04/02 02:58:46;;;;;;;4.38;1.10;;;2.50;99.90;;;;;;5088303;28;20055;-83
2023/04/02 03:01:13;;;;;;;2.50;0.80;;;2.50;99.90;;;;;;5072234;28;20385;-83
2023/04/02 03:03:39;;;;;;;2.70;0.60;;;2.50;99.90;;;;;;5070844;28;20127;-82
2023/04/02 03:06:24;;;;;;;5.35;1.20;;;1.90;99.90;;;;;;5047991;28;20115;-84
2023/04/02 03:09:17;;;;;;;3.20;1.00;;;2.00;99.90;;;;;;5065082;28;20044;-82
2023/04/02 03:12:53;;;;;;;3.53;1.15;;;2.30;99.90;;;;;;5071313;28;20503;-82
2023/04/02 03:15:29;;;;;;;3.78;0.70;;;0.30;99.90;;;;;;5087264;28;20503;-82
2023/04/02 03:18:24;;;;;;;3.25;0.70;;;-0.30;99.90;;;;;;5074706;28;20039;-83
2023/04/02 03:20:59;;;;;;;1.75;0.52;;;2.30;99.90;;;;;;5075971;28;20584;-82
2023/04/02 03:23:40;;;;;;;6.13;1.38;;;2.30;99.90;;;;;;5080922;28;20040;-83
2023/04/02 03:26:15;;;;;;;5.50;0.93;;;1.90;99.90;;;;;;5054416;28;20048;-84
2023/04/02 03:28:51;;;;;;;5.38;0.90;;;2.20;99.90;;;;;;5063892;28;20399;-83
2023/04/02 03:31:38;;;;;;;3.65;1.58;;;3.60;99.90;;;;;;5053873;28;20040;-84
2023/04/02 03:34:24;;;;;;;2.67;0.85;;;1.80;99.90;;;;;;5070688;28;20039;-83
2023/04/02 03:37:13;;;;;;;4.32;1.00;;;2.20;99.90;;;;;;5081903;28;20495;-83
2023/04/02 03:39:46;;;;;;;1.80;0.52;;;2.10;99.90;;;;;;5062536;28;20047;-84
2023/04/02 03:42:18;;;;;;;2.72;0.70;;;2.10;99.90;;;;;;5053723;28;20052;-84
2023/04/02 03:44:48;;;;;;;4.07;0.77;;;2.10;99.90;;;;;;5087460;28;20044;-84
2023/04/02 03:47:26;;;;;;;8.65;2.42;;;2.10;99.90;;;;;;5070015;28;20083;-84
2023/04/02 03:49:58;;;;;;;5.13;1.05;;;2.10;99.90;;;;;;5088056;28;20035;-85
2023/04/02 03:52:27;;;;;;;4.22;0.85;;;2.10;99.90;;;;;;5070362;28;20471;-84
2023/04/02 03:54:58;;;;;;;7.65;1.05;;;2.00;99.90;;;;;;5079751;28;20119;-84
2023/04/02 03:57:35;;;;;;;3.97;0.95;;;3.00;99.90;;;;;;5087039;28;20043;-84
2023/04/02 04:00:15;;;;;;;4.22;1.20;;;1.90;99.90;;;;;;5036616;28;20067;-84
2023/04/02 04:02:51;;;;;;;3.28;0.88;;;2.00;99.90;;;;;;5062738;28;20032;-84
2023/04/02 04:05:27;;;;;;;4.97;1.20;;;3.20;99.90;;;;;;5079388;28;20041;-84
2023/04/02 04:08:00;;;;;;;7.95;0.77;;;1.60;99.90;;;;;;5088154;28;20089;-84
2023/04/02 04:10:28;;;;;;;5.75;1.05;;;1.90;99.90;;;;;;5078133;28;20043;-84
2023/04/02 04:13:00;;;;;;;3.67;1.35;;;2.50;99.90;;;;;;5069887;28;20040;-83
2023/04/02 04:15:50;;;;;;;10.98;1.33;;;2.00;99.90;;;;;;5087496;28;20104;-83
2023/04/02 04:18:38;;;;;;;4.97;0.50;;;2.00;99.90;;;;;;5069234;28;20447;-82
2023/04/02 04:21:36;;;;;;;5.18;1.10;;;2.00;99.90;;;;;;5087046;28;20046;-82
2023/04/02 04:24:12;;;;;;;3.70;0.63;;;4.20;99.90;;;;;;5083374;28;20495;-82
2023/04/02 04:26:42;;;;;;;5.15;1.67;;;1.80;99.90;;;;;;5079399;28;20115;-82
2023/04/02 04:29:29;;;;;;;5.85;1.45;;;1.90;99.90;;;;;;5069846;28;20126;-82
2023/04/02 04:32:09;;;;;;;4.32;1.00;;;2.40;99.90;;;;;;5082310;28;20082;-82
2023/04/02 04:34:50;;;;;;;4.82;1.08;;;1.80;99.90;;;;;;5060916;28;20070;-83
2023/04/02 04:37:32;;;;;;;3.53;0.88;;;1.90;99.90;;;;;;5052702;28;20047;-83
2023/04/02 04:40:10;;;;;;;4.68;1.02;;;4.30;99.90;;;;;;5082113;28;20051;-83
2023/04/02 04:42:43;;;;;;;7.72;1.10;;;1.90;99.90;;;;;;5067619;28;20095;-83
2023/04/02 04:45:22;;;;;;;5.50;1.10;;;1.90;99.90;;;;;;5044757;28;20036;-83
2023/04/02 04:47:56;;;;;;;4.68;0.90;;;2.70;99.90;;;;;;5067306;28;20051;-83
2023/04/02 04:50:37;;;;;;;9.52;1.23;;;1.90;99.90;;;;;;5054187;28;20040;-83
2023/04/02 04:53:13;;;;;;;6.82;1.10;;;3.00;99.90;;;;;;5082987;28;20084;-83
2023/04/02 04:55:49;;;;;;;9.35;1.00;;;3.00;99.90;;;;;;5061927;28;20032;-83
2023/04/02 04:58:46;;;;;;;5.15;0.95;;;4.60;99.90;;;;;;5054910;28;20055;-83
2023/04/02 05:01:25;;;;;;;7.18;1.15;;;1.90;99.90;;;;;;5041886;28;20046;-83
2023/04/02 05:04:00;;;;;;;4.05;0.60;;;1.90;99.90;;;;;;5061861;28;20531;-83
2023/04/02 05:06:57;;;;;;;2.78;0.90;;;1.80;99.90;;;;;;5061433;28;20048;-84
2023/04/02 05:10:04;;;;;;;4.07;0.80;;;1.80;99.90;;;;;;5088912;28;20048;-84
2023/04/02 05:12:35;;;;;;;4.13;0.88;;;1.90;99.90;;;;;;5093038;28;20048;-83
2023/04/02 05:15:47;;;;;;;3.08;1.13;;;2.30;99.90;;;;;;5070950;28;20137;-84
2023/04/02 05:19:11;;;;;;;3.10;1.13;;;1.80;99.90;;;;;;5043727;28;20487;-83
2023/04/02 05:22:00;;;;;;;3.38;1.00;;;1.80;99.90;;;;;;5068182;28;20633;-85
2023/04/02 05:24:54;;;;;;;3.70;0.68;;;1.90;99.90;;;;;;5084902;28;20067;-83
2023/04/02 05:27:31;;;;;;;4.25;0.90;;;1.80;99.90;;;;;;5070054;28;20040;-84
2023/04/02 05:30:28;;;;;;;15.82;1.20;;;1.90;99.90;;;;;;5083711;28;20044;-84
2023/04/02 05:33:03;;;;;;;6.45;1.30;;;1.80;99.90;;;;;;5009745;28;20488;-83
2023/04/02 05:35:35;;;;;;;3.65;0.77;;;4.90;99.90;;;;;;5088167;28;20066;-84
2023/04/02 05:38:01;;;;;;;3.90;1.15;;;1.80;99.90;;;;;;5071695;28;20043;-83
2023/04/02 05:40:45;;;;;;;5.18;0.65;;;1.80;99.90;;;;;;5072485;28;20044;-84
2023/04/02 05:43:16;;;;;;;7.50;1.00;;;1.80;99.90;;;;;;5090200;28;20056;-86
2023/04/02 05:45:50;;;;;;;5.20;0.95;;;1.70;99.90;;;;;;5081815;28;20105;-83
2023/04/02 05:48:19;;;;;;;8.02;0.63;;;1.80;99.90;;;;;;5055631;28;20048;-84
2023/04/02 05:50:53;;;;;;;4.78;1.00;;;1.70;99.90;;;;;;5085457;28;20036;-85
2023/04/02 05:53:36;;;;;;;4.93;1.35;;;2.20;99.90;;;;;;5067354;28;20047;-84
2023/04/02 05:56:11;;;;;;;7.68;0.75;;;1.90;99.90;;;;;;5062150;28;20507;-84
2023/04/02 05:59:03;;;;;;;8.23;4.03;;;2.70;99.90;;;;;;5042454;28;20044;-83
2023/04/02 06:02:02;;;;;;;5.00;2.00;;;1.80;99.90;;;;;;5049997;28;20123;-84
2023/04/02 06:04:43;;;;;;;2.05;1.02;;;2.00;99.90;;;;;;5057351;28;20048;-83
2023/04/02 06:07:21;;;;;;;5.93;1.15;;;2.00;99.90;;;;;;5089827;28;20051;-84
2023/04/02 06:09:59;;;;;;;5.68;0.60;;;1.90;99.90;;;;;;5060225;28;20127;-83
2023/04/02 06:12:43;;;;;;;3.40;0.90;;;2.00;99.90;;;;;;5057907;28;20145;-83
2023/04/02 06:15:17;;;;;;;5.40;0.73;;;2.00;99.90;;;;;;5089457;28;20127;-84
2023/04/02 06:18:05;;;;;;;4.68;0.45;;;4.60;99.90;;;;;;5080980;28;20044;-84
2023/04/02 06:20:31;;;;;;;2.45;0.52;;;2.00;99.90;;;;;;5089402;28;20040;-83
2023/04/02 06:23:02;;;;;;;4.47;0.77;;;4.00;99.90;;;;;;5089838;28;20051;-83
2023/04/02 06:26:01;;;;;;;4.57;0.90;;;4.70;99.90;;;;;;5089213;28;20426;-83
2023/04/02 06:28:45;;;;;;;4.95;0.60;;;2.10;99.90;;;;;;5034611;28;20066;-83
2023/04/02 06:31:40;;;;;;;3.97;0.60;;;2.10;99.90;;;;;;5071846;28;20040;-83
2023/04/02 06:34:20;;;;;;;5.82;0.80;;;2.20;99.90;;;;;;5084034;28;20047;-83
2023/04/02 06:36:47;;;;;;;5.97;0.80;;;2.30;99.90;;;;;;5077152;28;20047;-83
2023/04/02 06:39:21;;;;;;;5.40;0.80;;;2.30;99.90;;;;;;5086804;28;20108;-83
2023/04/02 06:41:58;;;;;;;3.97;1.58;;;2.10;99.90;;;;;;5084790;28;20043;-83
2023/04/02 06:44:30;;;;;;;2.50;0.60;;;2.30;99.90;;;;;;5074548;28;20051;-84
2023/04/02 06:47:22;;;;;;;4.40;0.82;;;5.60;99.90;;;;;;5108367;28;20755;-83
2023/04/02 06:49:50;;;;;;;5.47;0.75;;;2.40;99.90;;;;;;5045862;28;20142;-83
2023/04/02 06:52:27;;;;;;;4.22;0.63;;;2.30;99.90;;;;;;5090625;28;20051;-82
2023/04/02 06:54:53;;;;;;;4.03;0.60;;;2.10;99.90;;;;;;5108061;28;20395;-83
2023/04/02 06:57:18;;;;;;;4.03;1.08;;;5.30;99.90;;;;;;5108997;28;20055;-82
2023/04/02 06:59:44;;;;;;;5.43;0.77;;;4.40;99.90;;;;;;5092273;28;20035;-82
2023/04/02 07:02:21;;;;;;;6.50;1.23;;;2.40;99.90;;;;;;5127305;28;20061;-82
2023/04/02 07:04:47;;;;;;;7.13;1.10;;;2.60;99.90;;;;;;5091376;28;20526;-83
2023/04/02 07:07:13;;;;;;;2.92;0.55;;;3.30;99.90;;;;;;5091330;28;20044;-82
2023/04/02 07:09:39;;;;;;;4.15;0.70;;;2.60;99.90;;;;;;4736905;28;10000579;-83
2023/04/02 07:12:14;;;;;;;5.88;0.88;;;2.60;99.90;;;;;;5089265;28;20426;-82
2023/04/02 07:14:40;;;;;;;2.78;0.70;;;5.80;99.90;;;;;;5071736;28;20056;-84
2023/04/02 07:17:06;;;;;;;6.20;0.77;;;;;;;;;;5071727;28;20860;-84
2023/04/02 07:19:31;;;;;;;4.35;0.95;;;2.80;99.90;;;;;;5089197;28;20503;-83
2023/04/02 07:21:57;;;;;;;2.67;0.70;;;2.70;99.90;;;;;;5087829;28;20160;-83
2023/04/02 07:24:22;;;;;;;3.20;0.50;;;4.90;99.90;;;;;;5105576;28;20039;-85
2023/04/02 07:26:48;;;;;;;5.88;0.63;;;5.80;99.90;;;;;;5105693;28;20071;-84
2023/04/02 07:29:16;;;;;;;6.95;0.52;;;4.70;99.90;;;;;;5071142;28;20051;-83
2023/04/02 07:31:43;;;;;;;4.38;0.38;;;5.20;99.90;;;;;;5066688;28;20040;-83
2023/04/02 07:34:12;;;;;;;7.88;0.60;;;0.60;99.90;;;;;;5068412;28;20043;-82
2023/04/02 07:36:38;;;;;;;3.90;0.80;;;3.00;99.90;;;;;;5087812;28;20514;-82
2023/04/02 07:39:04;;;;;;;3.67;0.65;;;3.00;99.90;;;;;;5071141;28;20047;-81
2023/04/02 07:41:35;;;;;;;5.53;0.68;;;3.90;99.90;;;;;;5087752;28;20043;-84
2023/04/02 07:44:03;;;;;;;4.43;0.77;;;3.10;99.90;;;;;;5073193;28;20043;-83
2023/04/02 07:46:28;;;;;;;3.90;0.80;;;5.50;99.90;;;;;;5072432;28;20548;-83
2023/04/02 07:49:00;;;;;;;5.88;0.95;;;2.80;99.90;;;;;;5108415;28;20039;-84
2023/04/02 07:51:26;;;;;;;6.50;0.85;;;3.10;99.90;;;;;;5090775;28;20442;-84
2023/04/02 07:53:54;;;;;;;3.38;0.60;;;3.00;99.90;;;;;;5108276;28;20054;-83
2023/04/02 07:56:21;;;;;;;3.20;0.50;;;3.20;99.90;;;;;;5072438;28;20044;-84
2023/04/02 07:58:47;;;;;;;4.78;1.00;;;4.80;99.90;;;;;;5090327;28;20115;-84
2023/04/02 08:01:22;;;;;;;2.78;1.02;;;4.30;99.90;;;;;;5090685;28;20071;-83
2023/04/02 08:03:48;;;;;;;3.05;1.48;;;5.90;99.90;;;;;;5067328;28;20102;-83
2023/04/02 08:06:14;;;;;;;3.30;0.50;;;6.00;99.90;;;;;;5107920;28;20555;-84
2023/04/02 08:08:41;;;;;;;5.60;0.60;;;6.20;99.90;;;;;;5082114;28;20048;-84
2023/04/02 08:11:07;;;;;;;2.45;0.80;;;3.40;99.90;;;;;;5089494;28;20054;-84
2023/04/02 08:13:33;;;;;;;5.35;0.80;;;5.80;99.90;;;;;;5073050;28;20047;-84
2023/04/02 08:16:00;;;;;;;3.15;0.65;;;3.60;99.90;;;;;;5089738;28;20031;-84
2023/04/02 08:18:26;;;;;;;3.17;0.70;;;3.40;99.90;;;;;;5072882;28;20442;-84
2023/04/02 08:20:52;;;;;;;3.28;0.85;;;5.90;99.90;;;;;;5073114;28;20039;-84
2023/04/02 08:23:18;;;;;;;5.57;1.05;;;3.60;99.90;;;;;;5089497;28;20177;-83
2023/04/02 08:25:44;;;;;;;6.28;1.00;;;3.70;99.90;;;;;;5089287;28;20549;-82
2023/04/02 08:28:10;;;;;;;4.65;0.70;;;3.90;99.90;;;;;;5088785;28;20054;-81
2023/04/02 08:30:36;;;;;;;3.15;0.60;;;6.40;99.90;;;;;;5088538;28;20512;-81
2023/04/02 08:33:02;;;;;;;5.15;1.55;;;6.50;99.90;;;;;;5072964;28;20051;-78
2023/04/02 08:35:28;;;;;;;18.35;9.73;;;3.70;99.90;;;;;;5089509;28;20118;-82
2023/04/02 08:37:57;;;;;;;5.22;1.25;;;3.80;99.90;;;;;;5089501;28;20131;-83
2023/04/02 08:40:34;;;;;;;4.70;0.85;;;5.60;99.90;;;;;;5108796;28;20035;-84
2023/04/02 08:43:19;;;;;;;4.30;0.90;;;4.10;99.90;;;;;;5078492;28;20040;-83
2023/04/02 08:46:17;;;;;;;3.58;0.90;;;4.20;99.90;;;;;;5089191;28;20041;-83
2023/04/02 08:48:49;;;;;;;5.05;0.73;;;4.20;99.90;;;;;;5079834;28;20040;-83
2023/04/02 08:51:22;;;;;;;5.90;0.68;;;4.20;99.90;;;;;;5075544;28;20051;-84
2023/04/02 08:53:49;;;;;;;3.08;0.80;;;4.20;99.90;;;;;;5067055;28;20033;-83
2023/04/02 08:56:22;;;;;;;5.80;0.50;;;4.20;99.90;;;;;;5075926;28;20048;-84
2023/04/02 08:58:59;;;;;;;1.63;0.65;;;4.30;99.90;;;;;;5049987;28;20048;-84
2023/04/02 09:01:50;;;;;;;3.63;1.10;;;6.20;99.90;;;;;;5076406;28;20415;-84
2023/04/02 09:04:23;;;;;;;4.88;0.80;;;4.40;99.90;;;;;;5063642;28;20052;-84
2023/04/02 09:06:54;;;;;;;4.78;1.30;;;6.80;99.90;;;;;;5053616;28;20033;-84
2023/04/02 09:09:22;;;;;;;5.25;0.73;;;7.30;99.90;;;;;;5077446;28;20435;-84
2023/04/02 09:11:59;;;;;;;4.18;0.90;;;6.40;99.90;;;;;;5065777;28;20052;-84
2023/04/02 09:14:55;;;;;;;2.38;0.90;;;7.30;99.90;;;;;;5064240;28;20058;-84
2023/04/02 09:17:30;;;;;;;3.50;0.73;;;4.50;99.90;;;;;;5080271;28;20094;-84
2023/04/02 09:20:20;;;;;;;8.27;0.85;;;4.60;99.90;;;;;;5065327;28;20048;-83
2023/04/02 09:22:49;;;;;;;6.05;0.90;;;4.70;99.90;;;;;;5083498;28;20048;-83
2023/04/02 09:25:34;;;;;;;2.70;0.80;;;4.60;99.90;;;;;;5064882;28;20043;-84
2023/04/02 09:28:04;;;;;;;8.30;0.82;;;4.60;99.90;;;;;;5068926;28;20559;-84
2023/04/02 09:30:30;;;;;;;2.65;0.75;;;8.00;99.90;;;;;;5046345;28;20044;-84
2023/04/02 09:33:01;;;;;;;2.33;0.50;;;7.50;99.90;;;;;;5083311;28;20048;-83
2023/04/02 09:35:31;;;;;;;3.17;0.80;;;5.00;99.90;;;;;;5079110;28;20047;-84
2023/04/02 09:38:06;;;;;;;3.05;0.80;;;7.10;99.90;;;;;;5078103;28;20041;-83
2023/04/02 09:40:44;;;;;;;5.72;0.90;;;5.10;99.90;;;;;;5079730;28;20377;-84
2023/04/02 09:43:23;;;;;;;2.28;0.57;;;6.80;99.90;;;;;;5088552;28;20059;-84
2023/04/02 09:45:57;;;;;;;3.92;0.95;;;5.00;99.90;;;;;;5082069;28;20044;-81
2023/04/02 09:48:25;;;;;;;2.83;1.00;;;4.90;99.90;;;;;;5072824;28;20158;-84
2023/04/02 09:51:14;;;;;;;3.47;0.77;;;5.10;99.90;;;;;;5072863;28;20039;-83
2023/04/02 09:54:40;;;;;;;3.05;1.10;;;6.00;99.90;;;;;;5089725;28;20047;-84
2023/04/02 09:57:41;;;;;;;4.15;1.00;;;5.30;99.90;;;;;;5083904;28;20466;-83
2023/04/02 10:00:40;;;;;;;4.15;0.68;;;5.50;99.90;;;;;;5084780;28;20372;-83
2023/04/02 10:03:34;;;;;;;3.08;0.90;;;5.40;99.90;;;;;;5066543;28;20048;-84
2023/04/02 10:06:30;;;;;;;1.20;0.55;;;5.50;99.90;;;;;;5078711;28;20541;-83
2023/04/02 10:09:34;;;;;;;6.80;1.67;;;5.90;99.90;;;;;;5085542;28;20043;-83
2023/04/02 10:12:12;;;;;;;4.53;0.95;;;7.30;99.90;;;;;;5067651;28;20036;-83
2023/04/02 10:15:07;;;;;;;3.22;1.15;;;6.60;99.90;;;;;;5037605;28;20523;-83
2023/04/02 10:17:36;;;;;;;1.65;0.77;;;4.60;99.90;;;;;;5071108;28;20087;-83
2023/04/02 10:20:22;;;;;;;5.55;2.50;;;3.70;99.90;;;;;;5067127;28;20041;-83
2023/04/02 10:22:57;;;;;;;3.13;1.00;;;7.70;99.90;;;;;;5064829;28;20572;-83
2023/04/02 10:25:36;;;;;;;4.63;0.65;;;7.30;99.90;;;;;;5058273;28;20070;-83
2023/04/02 10:28:37;;;;;;;2.20;0.60;;;6.20;99.90;;;;;;5107326;28;20082;-83
2023/04/02 10:31:59;;;;;;;1.40;0.55;;;6.50;99.90;;;;;;5050396;28;20040;-83
2023/04/02 10:34:49;;;;;;;2.28;0.65;;;6.40;99.90;;;;;;5043345;28;20109;-83
2023/04/02 10:38:12;;;;;;;3.72;0.40;;;6.40;99.90;;;;;;5070596;28;20093;-84
2023/04/02 10:41:17;;;;;;;2.50;0.70;;;6.40;99.90;;;;;;5071548;28;20044;-84
2023/04/02 10:44:13;;;;;;;4.32;1.35;;;6.60;99.90;;;;;;5063381;28;20055;-83
2023/04/02 10:46:38;;;;;;;9.45;3.75;;;6.70;99.90;;;;;;5042421;28;20047;-83
2023/04/02 10:49:58;;;;;;;2.08;0.60;;;5.10;99.90;;;;;;5078814;28;20043;-83
2023/04/02 10:52:48;;;;;;;2.50;0.50;;;6.90;99.90;;;;;;5080058;28;20086;-84
2023/04/02 10:55:55;;;;;;;2.42;0.60;;;9.20;99.90;;;;;;5078645;28;20037;-84
2023/04/02 10:59:23;;;;;;;1.77;0.30;;;8.30;99.90;;;;;;5057679;28;20046;-84
2023/04/02 11:02:22;;;;;;;2.28;0.60;;;7.20;99.90;;;;;;5071556;28;20036;-84
2023/04/02 11:05:15;;;;;;;3.15;0.50;;;7.30;99.90;;;;;;5058173;28;20060;-84
2023/04/02 11:08:02;;;;;;;2.17;0.77;;;7.40;99.90;;;;;;5056842;28;20527;-83
2023/04/02 11:11:13;;;;;;;3.25;0.55;;;9.00;99.90;;;;;;5026544;28;20051;-83
2023/04/02 11:13:57;;;;;;;6.55;1.10;;;7.40;99.90;;;;;;5058375;28;20479;-84
2023/04/02 11:16:55;;;;;;;4.35;0.45;;;7.60;99.90;;;;;;5059124;28;20178;-83
2023/04/02 11:19:44;;;;;;;5.68;1.30;;;7.80;99.90;;;;;;5028762;28;20052;-83
2023/04/02 11:22:21;;;;;;;3.67;1.38;;;7.90;99.90;;;;;;5039989;28;20153;-84
2023/04/02 11:24:52;;;;;;;4.30;0.90;;;8.00;99.90;;;;;;5051227;28;20040;-83
2023/04/02 11:27:29;;;;;;;5.00;0.85;;;8.20;99.90;;;;;;5042503;28;20033;-83
2023/04/02 11:30:02;;;;;;;2.53;0.28;;;8.30;99.90;;;;;;5057012;28;20481;-83
2023/04/02 11:32:32;;;;;;;1.08;0.30;;;8.40;99.90;;;;;;5061731;28;20067;-83
2023/04/02 11:35:01;;;;;;;2.30;0.38;;;7.00;99.90;;;;;;5038456;28;20129;-83
2023/04/02 11:37:44;;;;;;;4.15;0.35;;;10.40;99.90;;;;;;5061409;28;20051;-83
2023/04/02 11:40:10;;;;;;;3.20;0.65;;;9.80;99.90;;;;;;5040591;28;20067;-83
2023/04/02 11:42:43;;;;;;;1.77;0.30;;;9.50;99.90;;;;;;5059743;28;20513;-83
2023/04/02 11:45:27;;;;;;;3.38;0.40;;;8.90;99.90;;;;;;5056265;28;20106;-83
2023/04/02 11:47:59;;;;;;;1.55;0.57;;;8.90;99.90;;;;;;5057828;28;20037;-83
2023/04/02 11:50:39;;;;;;;1.25;0.30;;;10.70;99.90;;;;;;5041964;28;20055;-83
2023/04/02 11:53:30;;;;;;;3.42;0.22;;;9.10;99.90;;;;;;5039298;28;20032;-84
2023/04/02 11:56:50;;;;;;;2.25;0.60;;;9.20;99.90;;;;;;5069337;28;20055;-83
2023/04/02 11:59:39;;;;;;;2.05;0.70;;;9.40;99.90;;;;;;5028642;28;20061;-84
2023/04/02 12:02:22;;;;;;;2.38;0.40;;;9.50;99.90;;;;;;5051862;28;20127;-84
2023/04/02 12:04:51;;;;;;;5.57;0.52;;;9.60;99.90;;;;;;5033483;28;20044;-83
2023/04/02 12:07:54;;;;;;;1.42;0.20;;;9.80;99.90;;;;;;5076853;28;20110;-83
2023/04/02 12:10:33;;;;;;;2.63;0.57;;;9.90;99.90;;;;;;5061485;28;20091;-83
2023/04/02 12:12:59;;;;;;;1.13;0.52;;;10.10;99.90;;;;;;5070786;28;20043;-83
2023/04/02 12:15:43;;;;;;;2.05;0.38;;;11.40;99.90;;;;;;5057494;28;20032;-83
2023/04/02 12:18:15;;;;;;;2.65;0.40;;;10.30;99.90;;;;;;5076122;28;20044;-83
2023/04/02 12:20:46;;;;;;;2.50;0.38;;;10.30;99.90;;;;;;5078668;28;20071;-83
2023/04/02 12:23:19;;;;;;;2.03;0.30;;;12.30;99.90;;;;;;5079187;28;20044;-83
2023/04/02 12:25:54;;;;;;;3.22;0.50;;;12.40;99.90;;;;;;5058230;28;20110;-84
2023/04/02 12:28:21;;;;;;;2.50;0.30;;;10.60;99.90;;;;;;5057872;28;20566;-83
2023/04/02 12:30:49;;;;;;;1.98;0.52;;;10.70;99.90;;;;;;5049101;28;20119;-83
2023/04/02 12:33:21;;;;;;;1.25;0.20;;;11.40;99.90;;;;;;5058211;28;20511;-83
2023/04/02 12:35:49;;;;;;;3.60;0.30;;;11.00;99.90;;;;;;5057592;28;20044;-83
2023/04/02 12:38:24;;;;;;;1.52;0.40;;;10.60;99.90;;;;;;5041519;28;20041;-83
2023/04/02 12:40:58;;;;;;;1.27;0.50;;;10.70;99.90;;;;;;5054063;28;20029;-83
2023/04/02 12:43:26;;;;;;;1.92;0.35;;;11.80;99.90;;;;;;5061890;28;20068;-83
2023/04/02 12:46:04;;;;;;;1.20;0.40;;;10.80;99.90;;;;;;5039715;28;20036;-83
2023/04/02 12:48:30;;;;;;;2.85;0.47;;;10.90;99.90;;;;;;5059738;28;20063;-83
2023/04/02 12:50:57;;;;;;;1.13;0.45;;;11.20;99.90;;;;;;5057489;28;20032;-83
2023/04/02 12:53:36;;;;;;;3.47;0.68;;;11.40;99.90;;;;;;5038930;28;20055;-83
2023/04/02 12:56:02;;;;;;;1.52;0.57;;;11.10;99.90;;;;;;5020697;28;20334;-83
2023/04/02 12:58:55;;;;;;;2.45;0.40;;;11.10;99.90;;;;;;5069672;28;20040;-83
2023/04/02 13:01:30;;;;;;;0.75;0.32;;;11.10;99.90;;;;;;5058470;28;20135;-83
2023/04/02 13:04:13;;;;;;;2.63;0.38;;;11.10;99.90;;;;;;5068944;28;20079;-82
2023/04/02 13:06:46;;;;;;;1.17;0.20;;;12.10;99.90;;;;;;5074200;28;20472;-82
2023/04/02 13:09:34;;;;;;;0.50;0.20;;;11.30;99.90;;;;;;5064977;28;20048;-84
2023/04/02 13:12:01;;;;;;;2.13;0.30;;;11.40;99.90;;;;;;5064969;28;20040;-84
2023/04/02 13:14:28;;;;;;;0.73;0.40;;;13.00;99.90;;;;;;5059643;28;20063;-84
2023/04/02 13:16:54;;;;;;;2.17;0.20;;;12.30;99.90;;;;;;5082653;28;20028;-84
2023/04/02 13:19:31;;;;;;;3.80;0.30;;;11.40;99.90;;;;;;5064805;28;20047;-83
2023/04/02 13:21:59;;;;;;;1.40;0.52;;;11.80;99.90;;;;;;5037234;28;20171;-84
2023/04/02 13:24:30;;;;;;;1.00;0.40;;;12.60;99.90;;;;;;5061548;28;20048;-83
2023/04/02 13:26:59;;;;;;;0.88;0.28;;;11.50;99.90;;;;;;5056751;28;20054;-84
2023/04/02 13:29:35;;;;;;;1.70;0.65;;;11.50;99.90;;;;;;5062918;28;20069;-84
2023/04/02 13:32:03;;;;;;;2.35;0.60;;;12.10;99.90;;;;;;5082503;28;20035;-84
2023/04/02 13:34:29;;;;;;;2.20;0.57;;;11.40;99.90;;;;;;5081020;28;20407;-84
2023/04/02 13:36:56;;;;;;;1.92;0.60;;;13.20;99.90;;;;;;5060793;28;20361;-84
2023/04/02 13:39:22;;;;;;;1.27;0.40;;;11.80;99.90;;;;;;5061180;28;20036;-84
2023/04/02 13:41:57;;;;;;;1.52;0.40;;;11.50;99.90;;;;;;5080589;28;20097;-82
2023/04/02 13:44:28;;;;;;;3.83;0.45;;;11.50;99.90;;;;;;5072838;28;20480;-82
2023/04/02 13:46:55;;;;;;;2.65;0.40;;;11.40;99.90;;;;;;5085727;28;20032;-82
2023/04/02 13:49:21;;;;;;;1.48;0.50;;;11.50;99.90;;;;;;5095541;28;20020;-82
2023/04/02 13:51:50;;;;;;;1.95;0.40;;;11.60;99.90;;;;;;5077781;28;20036;-82